sensor_id;sensor_type;location;lat;lon;timestamp;P1;durP1;ratioP1;P2;durP2;ratioP2
75488;SDS011;64069;46.396;48.102;2023-10-31T00:00:15;30.23;;;11.93;;
75488;SDS011;64069;46.396;48.102;2023-10-31T00:02:42;27.80;;;11.80;;
75488;SDS011;64069;46.396;48.102;2023-10-31T00:05:08;28.85;;;12.45;;
75488;SDS011;64069;46.396;48.102;2023-10-31T00:07:34;29.05;;;11.68;;
75488;SDS011;64069;46.396;48.102;2023-10-31T00:10:00;27.10;;;11.43;;
75488;SDS011;64069;46.396;48.102;2023-10-31T00:12:26;25.30;;;12.00;;
75488;SDS011;64069;46.396;48.102;2023-10-31T00:14:52;29.23;;;12.25;;
75488;SDS011;64069;46.396;48.102;2023-10-31T00:17:18;31.92;;;11.82;;
75488;SDS011;64069;46.396;48.102;2023-10-31T00:19:44;27.60;;;12.73;;
75488;SDS011;64069;46.396;48.102;2023-10-31T00:22:10;29.13;;;12.10;;
75488;SDS011;64069;46.396;48.102;2023-10-31T00:24:36;30.10;;;13.13;;
75488;SDS011;64069;46.396;48.102;2023-10-31T00:27:02;30.80;;;12.32;;
75488;SDS011;64069;46.396;48.102;2023-10-31T00:29:28;28.08;;;12.20;;
75488;SDS011;64069;46.396;48.102;2023-10-31T00:31:54;24.55;;;11.38;;
75488;SDS011;64069;46.396;48.102;2023-10-31T00:34:20;26.75;;;11.20;;
75488;SDS011;64069;46.396;48.102;2023-10-31T00:36:46;28.15;;;11.65;;
75488;SDS011;64069;46.396;48.102;2023-10-31T00:39:12;24.90;;;11.77;;
75488;SDS011;64069;46.396;48.102;2023-10-31T00:41:39;26.67;;;12.40;;
75488;SDS011;64069;46.396;48.102;2023-10-31T00:44:05;29.02;;;11.30;;
75488;SDS011;64069;46.396;48.102;2023-10-31T00:46:31;28.50;;;11.75;;
75488;SDS011;64069;46.396;48.102;2023-10-31T00:48:57;27.02;;;11.70;;
75488;SDS011;64069;46.396;48.102;2023-10-31T00:51:23;25.20;;;10.90;;
75488;SDS011;64069;46.396;48.102;2023-10-31T00:53:49;26.60;;;11.20;;
75488;SDS011;64069;46.396;48.102;2023-10-31T00:56:15;30.02;;;12.50;;
75488;SDS011;64069;46.396;48.102;2023-10-31T00:58:41;28.40;;;12.73;;
75488;SDS011;64069;46.396;48.102;2023-10-31T01:01:07;26.33;;;10.77;;
75488;SDS011;64069;46.396;48.102;2023-10-31T01:03:33;26.27;;;10.82;;
75488;SDS011;64069;46.396;48.102;2023-10-31T01:05:59;25.45;;;11.55;;
75488;SDS011;64069;46.396;48.102;2023-10-31T01:08:25;25.17;;;10.40;;
75488;SDS011;64069;46.396;48.102;2023-10-31T01:10:51;26.80;;;11.52;;
75488;SDS011;64069;46.396;48.102;2023-10-31T01:13:17;29.38;;;11.55;;
75488;SDS011;64069;46.396;48.102;2023-10-31T01:15:43;28.13;;;10.85;;
75488;SDS011;64069;46.396;48.102;2023-10-31T01:18:09;27.05;;;10.93;;
75488;SDS011;64069;46.396;48.102;2023-10-31T01:20:35;27.75;;;11.63;;
75488;SDS011;64069;46.396;48.102;2023-10-31T01:23:02;27.02;;;11.63;;
75488;SDS011;64069;46.396;48.102;2023-10-31T01:25:28;23.90;;;10.13;;
75488;SDS011;64069;46.396;48.102;2023-10-31T01:27:54;25.08;;;11.07;;
75488;SDS011;64069;46.396;48.102;2023-10-31T01:30:20;26.65;;;10.93;;
75488;SDS011;64069;46.396;48.102;2023-10-31T01:32:46;24.80;;;10.65;;
75488;SDS011;64069;46.396;48.102;2023-10-31T01:35:12;27.33;;;11.30;;
75488;SDS011;64069;46.396;48.102;2023-10-31T01:37:38;29.95;;;10.88;;
75488;SDS011;64069;46.396;48.102;2023-10-31T01:40:04;25.80;;;10.32;;
75488;SDS011;64069;46.396;48.102;2023-10-31T01:42:32;23.67;;;11.32;;
75488;SDS011;64069;46.396;48.102;2023-10-31T01:44:59;29.73;;;11.82;;
75488;SDS011;64069;46.396;48.102;2023-10-31T01:47:25;28.38;;;11.32;;
75488;SDS011;64069;46.396;48.102;2023-10-31T01:49:51;29.80;;;12.38;;
75488;SDS011;64069;46.396;48.102;2023-10-31T01:52:17;28.15;;;11.05;;
75488;SDS011;64069;46.396;48.102;2023-10-31T01:54:44;26.23;;;11.55;;
75488;SDS011;64069;46.396;48.102;2023-10-31T01:57:10;29.08;;;10.25;;
75488;SDS011;64069;46.396;48.102;2023-10-31T01:59:36;32.33;;;11.02;;
75488;SDS011;64069;46.396;48.102;2023-10-31T02:02:02;29.55;;;11.45;;
75488;SDS011;64069;46.396;48.102;2023-10-31T02:04:30;27.23;;;11.18;;
75488;SDS011;64069;46.396;48.102;2023-10-31T02:06:56;33.47;;;11.45;;
75488;SDS011;64069;46.396;48.102;2023-10-31T02:09:22;24.42;;;11.43;;
75488;SDS011;64069;46.396;48.102;2023-10-31T02:11:52;29.73;;;11.38;;
75488;SDS011;64069;46.396;48.102;2023-10-31T02:14:18;27.27;;;11.05;;
75488;SDS011;64069;46.396;48.102;2023-10-31T02:16:44;26.10;;;10.18;;
75488;SDS011;64069;46.396;48.102;2023-10-31T02:19:10;26.17;;;10.18;;
75488;SDS011;64069;46.396;48.102;2023-10-31T02:21:40;20.20;;;9.93;;
75488;SDS011;64069;46.396;48.102;2023-10-31T02:24:06;24.48;;;11.60;;
75488;SDS011;64069;46.396;48.102;2023-10-31T02:26:32;30.40;;;12.15;;
75488;SDS011;64069;46.396;48.102;2023-10-31T02:29:00;26.00;;;9.75;;
75488;SDS011;64069;46.396;48.102;2023-10-31T02:31:27;26.20;;;10.32;;
75488;SDS011;64069;46.396;48.102;2023-10-31T02:33:53;23.48;;;10.27;;
75488;SDS011;64069;46.396;48.102;2023-10-31T02:36:19;27.42;;;10.15;;
75488;SDS011;64069;46.396;48.102;2023-10-31T02:38:46;28.00;;;11.68;;
75488;SDS011;64069;46.396;48.102;2023-10-31T02:41:12;32.80;;;11.18;;
75488;SDS011;64069;46.396;48.102;2023-10-31T02:43:39;29.17;;;10.98;;
75488;SDS011;64069;46.396;48.102;2023-10-31T02:46:05;30.15;;;11.70;;
75488;SDS011;64069;46.396;48.102;2023-10-31T02:48:32;28.63;;;11.60;;
75488;SDS011;64069;46.396;48.102;2023-10-31T02:51:06;33.75;;;12.73;;
75488;SDS011;64069;46.396;48.102;2023-10-31T02:53:33;30.55;;;12.48;;
75488;SDS011;64069;46.396;48.102;2023-10-31T02:55:59;38.05;;;13.45;;
75488;SDS011;64069;46.396;48.102;2023-10-31T02:58:25;32.10;;;12.98;;
75488;SDS011;64069;46.396;48.102;2023-10-31T03:00:53;32.15;;;13.70;;
75488;SDS011;64069;46.396;48.102;2023-10-31T03:03:19;31.15;;;12.45;;
75488;SDS011;64069;46.396;48.102;2023-10-31T03:05:45;26.45;;;12.60;;
75488;SDS011;64069;46.396;48.102;2023-10-31T03:08:10;33.78;;;12.73;;
75488;SDS011;64069;46.396;48.102;2023-10-31T03:10:38;36.15;;;12.70;;
75488;SDS011;64069;46.396;48.102;2023-10-31T03:13:04;33.42;;;12.55;;
75488;SDS011;64069;46.396;48.102;2023-10-31T03:15:30;30.27;;;13.00;;
75488;SDS011;64069;46.396;48.102;2023-10-31T03:17:56;27.42;;;10.95;;
75488;SDS011;64069;46.396;48.102;2023-10-31T03:20:22;29.25;;;11.90;;
75488;SDS011;64069;46.396;48.102;2023-10-31T03:22:48;27.33;;;11.75;;
75488;SDS011;64069;46.396;48.102;2023-10-31T03:25:14;26.88;;;11.55;;
75488;SDS011;64069;46.396;48.102;2023-10-31T03:27:40;31.00;;;12.00;;
75488;SDS011;64069;46.396;48.102;2023-10-31T03:30:06;25.52;;;11.48;;
75488;SDS011;64069;46.396;48.102;2023-10-31T03:32:33;26.90;;;11.60;;
75488;SDS011;64069;46.396;48.102;2023-10-31T03:34:59;28.52;;;10.95;;
75488;SDS011;64069;46.396;48.102;2023-10-31T03:37:24;26.65;;;11.55;;
75488;SDS011;64069;46.396;48.102;2023-10-31T03:39:50;27.00;;;11.05;;
75488;SDS011;64069;46.396;48.102;2023-10-31T03:42:16;24.63;;;10.05;;
75488;SDS011;64069;46.396;48.102;2023-10-31T03:44:42;27.90;;;11.45;;
75488;SDS011;64069;46.396;48.102;2023-10-31T03:47:08;30.60;;;12.85;;
75488;SDS011;64069;46.396;48.102;2023-10-31T03:49:37;34.63;;;12.77;;
75488;SDS011;64069;46.396;48.102;2023-10-31T03:52:04;29.42;;;11.85;;
75488;SDS011;64069;46.396;48.102;2023-10-31T03:54:31;33.47;;;12.85;;
75488;SDS011;64069;46.396;48.102;2023-10-31T03:56:57;37.55;;;14.85;;
75488;SDS011;64069;46.396;48.102;2023-10-31T03:59:24;46.50;;;16.00;;
75488;SDS011;64069;46.396;48.102;2023-10-31T04:01:50;38.55;;;14.15;;
75488;SDS011;64069;46.396;48.102;2023-10-31T04:04:16;34.40;;;14.02;;
75488;SDS011;64069;46.396;48.102;2023-10-31T04:06:42;33.58;;;14.15;;
75488;SDS011;64069;46.396;48.102;2023-10-31T04:09:09;31.50;;;11.98;;
75488;SDS011;64069;46.396;48.102;2023-10-31T04:11:35;25.85;;;10.70;;
75488;SDS011;64069;46.396;48.102;2023-10-31T04:14:01;24.30;;;10.00;;
75488;SDS011;64069;46.396;48.102;2023-10-31T04:16:29;26.88;;;11.88;;
75488;SDS011;64069;46.396;48.102;2023-10-31T04:18:55;26.90;;;12.25;;
75488;SDS011;64069;46.396;48.102;2023-10-31T04:21:20;31.35;;;11.73;;
75488;SDS011;64069;46.396;48.102;2023-10-31T04:23:46;23.52;;;11.18;;
75488;SDS011;64069;46.396;48.102;2023-10-31T04:26:12;23.73;;;11.20;;
75488;SDS011;64069;46.396;48.102;2023-10-31T04:28:38;24.52;;;10.32;;
75488;SDS011;64069;46.396;48.102;2023-10-31T04:31:04;18.25;;;9.60;;
75488;SDS011;64069;46.396;48.102;2023-10-31T04:33:31;22.98;;;10.35;;
75488;SDS011;64069;46.396;48.102;2023-10-31T04:35:57;21.58;;;9.32;;
75488;SDS011;64069;46.396;48.102;2023-10-31T04:38:23;22.10;;;8.48;;
75488;SDS011;64069;46.396;48.102;2023-10-31T04:40:49;17.77;;;9.00;;
75488;SDS011;64069;46.396;48.102;2023-10-31T04:43:15;18.80;;;8.60;;
75488;SDS011;64069;46.396;48.102;2023-10-31T04:45:41;18.83;;;8.80;;
75488;SDS011;64069;46.396;48.102;2023-10-31T04:48:07;18.98;;;8.52;;
75488;SDS011;64069;46.396;48.102;2023-10-31T04:50:33;18.90;;;8.43;;
75488;SDS011;64069;46.396;48.102;2023-10-31T04:52:59;23.27;;;9.98;;
75488;SDS011;64069;46.396;48.102;2023-10-31T04:55:29;22.35;;;9.60;;
75488;SDS011;64069;46.396;48.102;2023-10-31T04:57:55;17.58;;;8.90;;
75488;SDS011;64069;46.396;48.102;2023-10-31T05:00:21;19.13;;;9.00;;
75488;SDS011;64069;46.396;48.102;2023-10-31T05:02:48;20.50;;;9.20;;
75488;SDS011;64069;46.396;48.102;2023-10-31T05:05:14;24.65;;;10.13;;
75488;SDS011;64069;46.396;48.102;2023-10-31T05:07:40;22.23;;;10.07;;
75488;SDS011;64069;46.396;48.102;2023-10-31T05:10:07;23.92;;;11.18;;
75488;SDS011;64069;46.396;48.102;2023-10-31T05:12:33;21.40;;;10.45;;
75488;SDS011;64069;46.396;48.102;2023-10-31T05:14:59;15.45;;;8.27;;
75488;SDS011;64069;46.396;48.102;2023-10-31T05:17:24;16.45;;;7.45;;
75488;SDS011;64069;46.396;48.102;2023-10-31T05:19:50;13.18;;;6.38;;
75488;SDS011;64069;46.396;48.102;2023-10-31T05:22:16;13.88;;;6.00;;
75488;SDS011;64069;46.396;48.102;2023-10-31T05:24:42;15.40;;;5.85;;
75488;SDS011;64069;46.396;48.102;2023-10-31T05:27:08;16.58;;;6.30;;
75488;SDS011;64069;46.396;48.102;2023-10-31T05:29:34;13.48;;;6.30;;
75488;SDS011;64069;46.396;48.102;2023-10-31T05:32:01;15.10;;;6.97;;
75488;SDS011;64069;46.396;48.102;2023-10-31T05:34:27;12.95;;;7.50;;
75488;SDS011;64069;46.396;48.102;2023-10-31T05:36:53;15.48;;;7.13;;
75488;SDS011;64069;46.396;48.102;2023-10-31T05:39:19;13.30;;;7.30;;
75488;SDS011;64069;46.396;48.102;2023-10-31T05:41:45;18.65;;;8.43;;
75488;SDS011;64069;46.396;48.102;2023-10-31T05:44:11;15.43;;;8.02;;
75488;SDS011;64069;46.396;48.102;2023-10-31T05:46:40;16.92;;;8.60;;
75488;SDS011;64069;46.396;48.102;2023-10-31T05:49:07;19.52;;;8.65;;
75488;SDS011;64069;46.396;48.102;2023-10-31T05:51:33;18.52;;;8.27;;
75488;SDS011;64069;46.396;48.102;2023-10-31T05:54:00;14.00;;;7.80;;
75488;SDS011;64069;46.396;48.102;2023-10-31T05:56:26;32.78;;;9.60;;
75488;SDS011;64069;46.396;48.102;2023-10-31T05:58:52;20.92;;;9.57;;
75488;SDS011;64069;46.396;48.102;2023-10-31T06:01:18;21.67;;;7.75;;
75488;SDS011;64069;46.396;48.102;2023-10-31T06:03:44;13.65;;;6.40;;
75488;SDS011;64069;46.396;48.102;2023-10-31T06:06:10;12.73;;;6.53;;
75488;SDS011;64069;46.396;48.102;2023-10-31T06:08:38;12.13;;;6.75;;
75488;SDS011;64069;46.396;48.102;2023-10-31T06:11:04;15.13;;;7.13;;
75488;SDS011;64069;46.396;48.102;2023-10-31T06:13:30;14.30;;;6.63;;
75488;SDS011;64069;46.396;48.102;2023-10-31T06:15:57;13.95;;;5.75;;
75488;SDS011;64069;46.396;48.102;2023-10-31T06:18:26;12.13;;;5.38;;
75488;SDS011;64069;46.396;48.102;2023-10-31T06:20:52;11.68;;;5.60;;
75488;SDS011;64069;46.396;48.102;2023-10-31T06:23:18;13.20;;;5.50;;
75488;SDS011;64069;46.396;48.102;2023-10-31T06:25:44;10.00;;;4.63;;
75488;SDS011;64069;46.396;48.102;2023-10-31T06:28:10;10.57;;;4.63;;
75488;SDS011;64069;46.396;48.102;2023-10-31T06:30:36;11.52;;;4.88;;
75488;SDS011;64069;46.396;48.102;2023-10-31T06:33:02;10.93;;;5.22;;
75488;SDS011;64069;46.396;48.102;2023-10-31T06:35:28;14.30;;;5.40;;
75488;SDS011;64069;46.396;48.102;2023-10-31T06:37:55;14.10;;;6.45;;
75488;SDS011;64069;46.396;48.102;2023-10-31T06:40:23;19.48;;;7.05;;
75488;SDS011;64069;46.396;48.102;2023-10-31T06:42:50;11.73;;;6.00;;
75488;SDS011;64069;46.396;48.102;2023-10-31T06:45:15;15.27;;;6.63;;
75488;SDS011;64069;46.396;48.102;2023-10-31T06:47:41;18.00;;;6.07;;
75488;SDS011;64069;46.396;48.102;2023-10-31T06:50:07;13.75;;;5.60;;
75488;SDS011;64069;46.396;48.102;2023-10-31T06:52:35;10.25;;;4.30;;
75488;SDS011;64069;46.396;48.102;2023-10-31T06:55:01;6.85;;;2.78;;
75488;SDS011;64069;46.396;48.102;2023-10-31T06:57:27;5.35;;;2.20;;
75488;SDS011;64069;46.396;48.102;2023-10-31T06:59:53;3.42;;;1.80;;
75488;SDS011;64069;46.396;48.102;2023-10-31T07:02:19;4.60;;;2.22;;
75488;SDS011;64069;46.396;48.102;2023-10-31T07:04:45;7.63;;;2.00;;
75488;SDS011;64069;46.396;48.102;2023-10-31T07:07:10;4.20;;;1.60;;
75488;SDS011;64069;46.396;48.102;2023-10-31T07:09:37;2.70;;;1.30;;
75488;SDS011;64069;46.396;48.102;2023-10-31T07:12:03;4.70;;;1.70;;
75488;SDS011;64069;46.396;48.102;2023-10-31T07:14:29;6.85;;;1.80;;
75488;SDS011;64069;46.396;48.102;2023-10-31T07:16:57;4.72;;;1.75;;
75488;SDS011;64069;46.396;48.102;2023-10-31T07:19:23;9.25;;;2.90;;
75488;SDS011;64069;46.396;48.102;2023-10-31T07:21:49;7.55;;;3.53;;
75488;SDS011;64069;46.396;48.102;2023-10-31T07:24:14;6.65;;;2.00;;
75488;SDS011;64069;46.396;48.102;2023-10-31T07:26:41;3.88;;;2.00;;
75488;SDS011;64069;46.396;48.102;2023-10-31T07:29:07;3.80;;;1.60;;
75488;SDS011;64069;46.396;48.102;2023-10-31T07:31:34;5.68;;;1.80;;
75488;SDS011;64069;46.396;48.102;2023-10-31T07:34:04;4.18;;;1.50;;
75488;SDS011;64069;46.396;48.102;2023-10-31T07:36:30;4.10;;;1.90;;
75488;SDS011;64069;46.396;48.102;2023-10-31T07:38:57;4.97;;;1.48;;
75488;SDS011;64069;46.396;48.102;2023-10-31T07:41:24;4.35;;;2.10;;
75488;SDS011;64069;46.396;48.102;2023-10-31T07:43:50;6.60;;;2.08;;
75488;SDS011;64069;46.396;48.102;2023-10-31T07:46:16;7.15;;;1.70;;
75488;SDS011;64069;46.396;48.102;2023-10-31T07:48:41;3.05;;;1.40;;
75488;SDS011;64069;46.396;48.102;2023-10-31T07:51:08;6.00;;;1.85;;
75488;SDS011;64069;46.396;48.102;2023-10-31T07:53:33;5.53;;;1.90;;
75488;SDS011;64069;46.396;48.102;2023-10-31T07:56:00;7.50;;;2.55;;
75488;SDS011;64069;46.396;48.102;2023-10-31T07:58:26;8.18;;;2.28;;
75488;SDS011;64069;46.396;48.102;2023-10-31T08:00:52;7.05;;;2.05;;
75488;SDS011;64069;46.396;48.102;2023-10-31T08:03:18;5.15;;;1.60;;
75488;SDS011;64069;46.396;48.102;2023-10-31T08:05:44;7.43;;;1.73;;
75488;SDS011;64069;46.396;48.102;2023-10-31T08:08:10;5.55;;;1.48;;
75488;SDS011;64069;46.396;48.102;2023-10-31T08:10:36;4.38;;;1.38;;
75488;SDS011;64069;46.396;48.102;2023-10-31T08:13:02;3.72;;;1.55;;
75488;SDS011;64069;46.396;48.102;2023-10-31T08:15:29;5.30;;;1.63;;
75488;SDS011;64069;46.396;48.102;2023-10-31T08:17:55;5.80;;;1.75;;
75488;SDS011;64069;46.396;48.102;2023-10-31T08:20:21;10.48;;;1.80;;
75488;SDS011;64069;46.396;48.102;2023-10-31T08:22:47;6.97;;;1.10;;
75488;SDS011;64069;46.396;48.102;2023-10-31T08:25:16;3.65;;;1.30;;
75488;SDS011;64069;46.396;48.102;2023-10-31T08:27:42;8.13;;;1.52;;
75488;SDS011;64069;46.396;48.102;2023-10-31T08:30:08;2.25;;;1.10;;
75488;SDS011;64069;46.396;48.102;2023-10-31T08:32:35;6.90;;;2.00;;
75488;SDS011;64069;46.396;48.102;2023-10-31T08:35:01;3.80;;;1.30;;
75488;SDS011;64069;46.396;48.102;2023-10-31T08:37:26;2.80;;;1.10;;
75488;SDS011;64069;46.396;48.102;2023-10-31T08:39:52;5.45;;;1.40;;
75488;SDS011;64069;46.396;48.102;2023-10-31T08:42:18;2.83;;;1.17;;
75488;SDS011;64069;46.396;48.102;2023-10-31T08:44:44;2.70;;;1.50;;
75488;SDS011;64069;46.396;48.102;2023-10-31T08:47:10;3.00;;;1.00;;
75488;SDS011;64069;46.396;48.102;2023-10-31T08:49:37;5.25;;;1.35;;
75488;SDS011;64069;46.396;48.102;2023-10-31T08:52:03;2.88;;;1.65;;
75488;SDS011;64069;46.396;48.102;2023-10-31T08:54:30;3.25;;;1.13;;
75488;SDS011;64069;46.396;48.102;2023-10-31T08:56:56;3.45;;;1.10;;
75488;SDS011;64069;46.396;48.102;2023-10-31T08:59:22;2.30;;;1.10;;
75488;SDS011;64069;46.396;48.102;2023-10-31T09:01:48;3.90;;;1.10;;
75488;SDS011;64069;46.396;48.102;2023-10-31T09:04:14;2.53;;;1.00;;
75488;SDS011;64069;46.396;48.102;2023-10-31T09:06:40;9.35;;;1.58;;
75488;SDS011;64069;46.396;48.102;2023-10-31T09:09:07;5.63;;;1.48;;
75488;SDS011;64069;46.396;48.102;2023-10-31T09:11:33;6.55;;;1.02;;
75488;SDS011;64069;46.396;48.102;2023-10-31T09:13:59;3.25;;;1.20;;
75488;SDS011;64069;46.396;48.102;2023-10-31T09:16:25;4.55;;;1.23;;
75488;SDS011;64069;46.396;48.102;2023-10-31T09:18:51;16.33;;;1.35;;
75488;SDS011;64069;46.396;48.102;2023-10-31T09:21:18;6.00;;;1.23;;
75488;SDS011;64069;46.396;48.102;2023-10-31T09:23:44;6.43;;;2.13;;
75488;SDS011;64069;46.396;48.102;2023-10-31T09:26:10;4.80;;;1.30;;
75488;SDS011;64069;46.396;48.102;2023-10-31T09:28:36;3.55;;;1.33;;
75488;SDS011;64069;46.396;48.102;2023-10-31T09:31:03;4.07;;;0.98;;
75488;SDS011;64069;46.396;48.102;2023-10-31T09:33:30;2.55;;;1.10;;
75488;SDS011;64069;46.396;48.102;2023-10-31T09:35:55;4.68;;;1.00;;
75488;SDS011;64069;46.396;48.102;2023-10-31T09:38:23;1.60;;;0.90;;
75488;SDS011;64069;46.396;48.102;2023-10-31T09:40:50;1.95;;;1.00;;
75488;SDS011;64069;46.396;48.102;2023-10-31T09:43:17;4.95;;;1.20;;
75488;SDS011;64069;46.396;48.102;2023-10-31T09:45:43;7.85;;;1.45;;
75488;SDS011;64069;46.396;48.102;2023-10-31T09:48:14;8.52;;;1.40;;
75488;SDS011;64069;46.396;48.102;2023-10-31T09:50:41;3.67;;;0.98;;
75488;SDS011;64069;46.396;48.102;2023-10-31T09:53:11;4.60;;;1.00;;
75488;SDS011;64069;46.396;48.102;2023-10-31T09:55:39;2.55;;;1.00;;
75488;SDS011;64069;46.396;48.102;2023-10-31T09:58:06;6.65;;;2.00;;
75488;SDS011;64069;46.396;48.102;2023-10-31T10:00:33;6.07;;;2.03;;
75488;SDS011;64069;46.396;48.102;2023-10-31T10:02:59;19.92;;;1.60;;
75488;SDS011;64069;46.396;48.102;2023-10-31T10:05:25;5.20;;;1.42;;
75488;SDS011;64069;46.396;48.102;2023-10-31T10:07:55;5.50;;;1.40;;
75488;SDS011;64069;46.396;48.102;2023-10-31T10:10:22;2.92;;;1.00;;
75488;SDS011;64069;46.396;48.102;2023-10-31T10:12:47;5.20;;;1.40;;
75488;SDS011;64069;46.396;48.102;2023-10-31T10:15:13;5.72;;;1.52;;
75488;SDS011;64069;46.396;48.102;2023-10-31T10:17:41;1.95;;;0.95;;
75488;SDS011;64069;46.396;48.102;2023-10-31T10:20:14;6.38;;;1.52;;
75488;SDS011;64069;46.396;48.102;2023-10-31T10:22:41;3.50;;;1.10;;
75488;SDS011;64069;46.396;48.102;2023-10-31T10:25:09;7.47;;;1.65;;
75488;SDS011;64069;46.396;48.102;2023-10-31T10:27:37;3.88;;;1.35;;
75488;SDS011;64069;46.396;48.102;2023-10-31T10:30:03;3.72;;;1.35;;
75488;SDS011;64069;46.396;48.102;2023-10-31T10:32:30;5.60;;;1.30;;
75488;SDS011;64069;46.396;48.102;2023-10-31T10:34:56;2.70;;;1.20;;
75488;SDS011;64069;46.396;48.102;2023-10-31T10:37:23;6.97;;;1.95;;
75488;SDS011;64069;46.396;48.102;2023-10-31T10:39:56;12.65;;;3.47;;
75488;SDS011;64069;46.396;48.102;2023-10-31T10:45:14;8.80;;;2.88;;
75488;SDS011;64069;46.396;48.102;2023-10-31T10:47:44;15.23;;;3.25;;
75488;SDS011;64069;46.396;48.102;2023-10-31T10:50:15;10.43;;;3.20;;
75488;SDS011;64069;46.396;48.102;2023-10-31T10:52:49;14.50;;;3.50;;
75488;SDS011;64069;46.396;48.102;2023-10-31T10:55:45;13.10;;;3.80;;
75488;SDS011;64069;46.396;48.102;2023-10-31T10:58:22;10.07;;;1.90;;
75488;SDS011;64069;46.396;48.102;2023-10-31T11:01:00;3.03;;;1.40;;
75488;SDS011;64069;46.396;48.102;2023-10-31T11:03:27;4.85;;;1.65;;
75488;SDS011;64069;46.396;48.102;2023-10-31T11:05:56;3.72;;;1.70;;
75488;SDS011;64069;46.396;48.102;2023-10-31T11:08:23;4.07;;;1.33;;
75488;SDS011;64069;46.396;48.102;2023-10-31T11:10:51;7.63;;;1.45;;
75488;SDS011;64069;46.396;48.102;2023-10-31T11:13:18;7.43;;;1.55;;
75488;SDS011;64069;46.396;48.102;2023-10-31T11:15:45;8.43;;;1.60;;
75488;SDS011;64069;46.396;48.102;2023-10-31T11:18:13;5.90;;;1.73;;
75488;SDS011;64069;46.396;48.102;2023-10-31T11:20:40;8.52;;;1.50;;
75488;SDS011;64069;46.396;48.102;2023-10-31T11:23:06;6.80;;;1.65;;
75488;SDS011;64069;46.396;48.102;2023-10-31T11:25:33;13.75;;;1.55;;
75488;SDS011;64069;46.396;48.102;2023-10-31T11:28:17;15.68;;;1.88;;
75488;SDS011;64069;46.396;48.102;2023-10-31T11:30:43;10.73;;;1.77;;
75488;SDS011;64069;46.396;48.102;2023-10-31T11:33:13;12.88;;;1.77;;
75488;SDS011;64069;46.396;48.102;2023-10-31T11:35:42;9.73;;;1.60;;
75488;SDS011;64069;46.396;48.102;2023-10-31T11:38:11;6.93;;;2.13;;
75488;SDS011;64069;46.396;48.102;2023-10-31T11:43:10;3.03;;;1.58;;
75488;SDS011;64069;46.396;48.102;2023-10-31T11:45:40;9.98;;;2.05;;
75488;SDS011;64069;46.396;48.102;2023-10-31T11:48:10;6.47;;;1.58;;
75488;SDS011;64069;46.396;48.102;2023-10-31T11:50:36;3.85;;;1.60;;
75488;SDS011;64069;46.396;48.102;2023-10-31T11:53:04;6.90;;;2.70;;
75488;SDS011;64069;46.396;48.102;2023-10-31T11:55:41;15.32;;;2.58;;
75488;SDS011;64069;46.396;48.102;2023-10-31T11:58:18;8.43;;;2.10;;
75488;SDS011;64069;46.396;48.102;2023-10-31T12:00:46;5.75;;;1.65;;
75488;SDS011;64069;46.396;48.102;2023-10-31T12:03:18;5.43;;;2.22;;
75488;SDS011;64069;46.396;48.102;2023-10-31T12:05:56;10.13;;;1.90;;
75488;SDS011;64069;46.396;48.102;2023-10-31T12:08:33;3.55;;;1.80;;
75488;SDS011;64069;46.396;48.102;2023-10-31T12:13:36;9.52;;;2.03;;
75488;SDS011;64069;46.396;48.102;2023-10-31T12:16:07;9.50;;;2.80;;
75488;SDS011;64069;46.396;48.102;2023-10-31T12:18:41;5.25;;;2.53;;
75488;SDS011;64069;46.396;48.102;2023-10-31T12:21:07;6.80;;;2.78;;
75488;SDS011;64069;46.396;48.102;2023-10-31T12:23:37;6.88;;;2.60;;
75488;SDS011;64069;46.396;48.102;2023-10-31T12:26:07;3.67;;;1.60;;
75488;SDS011;64069;46.396;48.102;2023-10-31T12:28:34;4.30;;;1.50;;
75488;SDS011;64069;46.396;48.102;2023-10-31T12:31:03;10.02;;;1.88;;
75488;SDS011;64069;46.396;48.102;2023-10-31T12:33:29;11.43;;;2.55;;
75488;SDS011;64069;46.396;48.102;2023-10-31T12:35:56;8.07;;;2.50;;
75488;SDS011;64069;46.396;48.102;2023-10-31T12:38:24;5.50;;;1.90;;
75488;SDS011;64069;46.396;48.102;2023-10-31T12:40:51;5.50;;;2.40;;
75488;SDS011;64069;46.396;48.102;2023-10-31T12:43:18;7.38;;;3.20;;
75488;SDS011;64069;46.396;48.102;2023-10-31T12:45:44;8.90;;;3.30;;
75488;SDS011;64069;46.396;48.102;2023-10-31T12:48:10;5.38;;;2.75;;
75488;SDS011;64069;46.396;48.102;2023-10-31T12:50:37;5.75;;;3.03;;
75488;SDS011;64069;46.396;48.102;2023-10-31T12:53:08;5.95;;;2.80;;
75488;SDS011;64069;46.396;48.102;2023-10-31T12:55:41;56.53;;;6.57;;
75488;SDS011;64069;46.396;48.102;2023-10-31T12:58:08;9.70;;;2.72;;
75488;SDS011;64069;46.396;48.102;2023-10-31T13:00:35;9.00;;;2.35;;
75488;SDS011;64069;46.396;48.102;2023-10-31T13:03:04;18.42;;;4.10;;
75488;SDS011;64069;46.396;48.102;2023-10-31T13:05:31;7.35;;;2.53;;
75488;SDS011;64069;46.396;48.102;2023-10-31T13:08:01;9.43;;;3.25;;
75488;SDS011;64069;46.396;48.102;2023-10-31T13:10:30;8.48;;;3.08;;
75488;SDS011;64069;46.396;48.102;2023-10-31T13:12:59;10.63;;;3.60;;
75488;SDS011;64069;46.396;48.102;2023-10-31T13:15:25;6.85;;;2.10;;
75488;SDS011;64069;46.396;48.102;2023-10-31T13:17:54;8.48;;;2.50;;
75488;SDS011;64069;46.396;48.102;2023-10-31T13:20:21;6.88;;;2.53;;
75488;SDS011;64069;46.396;48.102;2023-10-31T13:22:47;8.55;;;3.53;;
75488;SDS011;64069;46.396;48.102;2023-10-31T13:25:14;7.93;;;3.38;;
75488;SDS011;64069;46.396;48.102;2023-10-31T13:27:42;9.60;;;4.32;;
75488;SDS011;64069;46.396;48.102;2023-10-31T13:30:12;9.38;;;3.80;;
75488;SDS011;64069;46.396;48.102;2023-10-31T13:32:40;13.93;;;4.55;;
75488;SDS011;64069;46.396;48.102;2023-10-31T13:35:06;20.98;;;6.22;;
75488;SDS011;64069;46.396;48.102;2023-10-31T13:37:35;13.18;;;5.28;;
75488;SDS011;64069;46.396;48.102;2023-10-31T13:40:05;12.90;;;4.63;;
75488;SDS011;64069;46.396;48.102;2023-10-31T13:42:38;21.05;;;7.90;;
75488;SDS011;64069;46.396;48.102;2023-10-31T13:45:05;20.15;;;7.75;;
75488;SDS011;64069;46.396;48.102;2023-10-31T13:47:31;23.83;;;8.70;;
75488;SDS011;64069;46.396;48.102;2023-10-31T13:49:58;15.45;;;5.60;;
75488;SDS011;64069;46.396;48.102;2023-10-31T13:52:24;17.30;;;6.82;;
75488;SDS011;64069;46.396;48.102;2023-10-31T13:54:50;29.77;;;9.98;;
75488;SDS011;64069;46.396;48.102;2023-10-31T13:57:17;40.92;;;12.55;;
75488;SDS011;64069;46.396;48.102;2023-10-31T13:59:43;30.05;;;9.80;;
75488;SDS011;64069;46.396;48.102;2023-10-31T14:02:12;25.77;;;8.55;;
75488;SDS011;64069;46.396;48.102;2023-10-31T14:04:38;21.70;;;8.75;;
75488;SDS011;64069;46.396;48.102;2023-10-31T14:07:06;22.25;;;7.05;;
75488;SDS011;64069;46.396;48.102;2023-10-31T14:09:32;15.35;;;6.25;;
75488;SDS011;64069;46.396;48.102;2023-10-31T14:11:59;11.18;;;5.43;;
75488;SDS011;64069;46.396;48.102;2023-10-31T14:14:25;15.80;;;5.28;;
75488;SDS011;64069;46.396;48.102;2023-10-31T14:16:51;18.83;;;7.07;;
75488;SDS011;64069;46.396;48.102;2023-10-31T14:19:17;18.63;;;7.70;;
75488;SDS011;64069;46.396;48.102;2023-10-31T14:21:43;18.45;;;7.63;;
75488;SDS011;64069;46.396;48.102;2023-10-31T14:24:09;21.77;;;7.93;;
75488;SDS011;64069;46.396;48.102;2023-10-31T14:26:35;23.58;;;9.30;;
75488;SDS011;64069;46.396;48.102;2023-10-31T14:29:02;22.95;;;7.53;;